Green Creek, Illinois
Current Conditions -  °F | °C
As of 2:55 AM on Thursday 23 Oct 2014 (Local Time) from K1H2 Reporting Station
Clear Clear  
Wind Chill: 37°   Ceiling: Unl
Heat Index: 37°   Visibility: 10mi
Dew Point: 34°   Wind: 3mph
Humidity: 91%   Direction: 120°ESE
Pressure: 30.23"   Gusts: NA
Location:  39.1183°N, 88.6059°W
Report Text: K1H2 230755Z AUTO 12003KT 10SM CLR 03/01 A3023 RMK AO2 T00270013
Loading
Personal Weather Stations






























Interactive Weather Map
Tropical Storm Tracking
New forecast layout! Learn more

10-Day Weather Forecast

Advertisements
Track Severe Weather on mobile